NCAR-RAP Real-Time Weather Data

Output produced by METARs form (23 June 2021  08:14 UTC)
found at http://weather.rap.ucar.edu/surface/
 
CYPA 230800Z 28006KT 15SM FEW100 BKN250 14/12 A2945 RMK AC1CI6 AC TR SLP976 DENSITY ALT 2200FT
CYPA 230700Z 22005KT 15SM FEW100 FEW250 17/14 A2944 RMK AC1CI1 AC TR SLP971 DENSITY ALT 2500FT
CYPA 230600Z 27005KT 15SM FEW100 FEW250 17/14 A2944 RMK AC1CI2 AC TR SLP970 DENSITY ALT 2600FT
CYPA 230500Z 34003KT 15SM SCT130 19/13 A2942 RMK AC4 ACC ASOCTD SLP965 DENSITY ALT 2800FT
CYPA 230400Z 27006KT 15SM FEW130 FEW250 21/14 A2942 RMK ACC1CI1 SLP967 DENSITY ALT 3000FT
CYPA 230300Z 22005KT 15SM FEW130 BKN250 23/14 A2942 RMK ACC1CI5 SLP964 DENSITY ALT 3300FT
CYPA 230200Z 24007KT 15SM SCT130 BKN250 25/13 A2942 RMK AC4CI3 ACC ASOCTD SLP965 DENSITY ALT 3500FT
CYPA 230100Z 24007KT 15SM FEW056 SCT140 BKN240 26/12 A2943 RMK CU1AC3CI2 CU TR ACC ASOCTD SLP969 DENSITY ALT 3500FT
CYPA 230000Z 27008KT 15SM FEW060 BKN140 BKN240 27/12 A2945 RMK CU1AC5CI1 CU TR ACC ASOCTD SLP975 DENSITY ALT 3700FT
CYPA 222300Z 27011G17KT 15SM FEW064 FEW140 BKN160 BKN240 27/11 A2947 RMK CU1ACC2AC3CI2 CU TR CB TOP DIST N SLP984 DENSITY ALT 3700FT
CYPA 222200Z 27014G19KT 15SM FEW068 FEW090 FEW190 BKN240 29/12 A2948 RMK CU1AC1AC1CI4 CU TR CB TOP DIST NW SLP985 DENSITY ALT 3800FT
CYPA 222100Z 27011KT 15SM FEW068 FEW090 SCT190 BKN240 28/11 A2950 RMK CU1AC1AC2CI5 CU TR AC TR SLP993 DENSITY ALT 3700FT
 
CWSR 230800Z AUTO 30006KT 15/10 RMK AO1 SLP982 T01480096 51014
CWSR 230700Z AUTO 27006KT 15/09 RMK AO1 SLP980 T01470093 53014
CWSR 230600Z AUTO 29007KT 16/09 RMK AO1 SLP976 T01630092 53013
CWSR 230500Z AUTO 26007KT 19/09 RMK AO1 SLP964 T01940088 53002
CWSR 230400Z AUTO 24007KT 19/09 RMK AO1 SLP964 T01920092 53003
CWSR 230300Z AUTO 24006KT 22/09 RMK AO1 SLP961 T02170089 57001
CWSR 230200Z AUTO 26007KT 24/09 RMK AO1 PK WND 26018/0109 SLP962 T02430092 55005
CWSR 230100Z AUTO 27012G19KT 26/06 RMK AO1 PK WND 26023/0007 SLP961 T02600055 56012
CWSR 230000Z AUTO 24012KT 27/09 RMK AO1 PK WND 24019/2302 SLP962 T02700093 56020
CWSR 222300Z AUTO 24010KT 27/09 RMK AO1 PK WND 25020/2223 SLP968 T02720093 58020
CWSR 222200Z AUTO 24011G17KT 27/08 RMK AO1 PK WND 24017/2158 SLP975 T02670084 58015
CWSR 222100Z AUTO 24007KT 24/12 RMK AO1 SLP986 T02400121 56010